sensor_id;sensor_type;location;lat;lon;timestamp;P1;durP1;ratioP1;P2;durP2;ratioP2
66342;SDS011;53144;51.524;5.080;2023-06-10T00:02:19;11.23;;;6.45;;
66342;SDS011;53144;51.524;5.080;2023-06-10T00:04:45;6.35;;;5.75;;
66342;SDS011;53144;51.524;5.080;2023-06-10T00:07:10;10.75;;;6.20;;
66342;SDS011;53144;51.524;5.080;2023-06-10T00:09:36;6.85;;;6.03;;
66342;SDS011;53144;51.524;5.080;2023-06-10T00:12:03;8.57;;;5.63;;
66342;SDS011;53144;51.524;5.080;2023-06-10T00:14:30;8.50;;;5.63;;
66342;SDS011;53144;51.524;5.080;2023-06-10T00:16:55;9.63;;;6.22;;
66342;SDS011;53144;51.524;5.080;2023-06-10T00:19:22;11.30;;;6.25;;
66342;SDS011;53144;51.524;5.080;2023-06-10T00:21:51;11.98;;;6.40;;
66342;SDS011;53144;51.524;5.080;2023-06-10T00:24:17;8.85;;;5.95;;
66342;SDS011;53144;51.524;5.080;2023-06-10T00:26:43;13.05;;;6.22;;
66342;SDS011;53144;51.524;5.080;2023-06-10T00:29:09;12.07;;;6.63;;
66342;SDS011;53144;51.524;5.080;2023-06-10T00:31:35;8.32;;;6.28;;
66342;SDS011;53144;51.524;5.080;2023-06-10T00:34:02;8.88;;;5.90;;
66342;SDS011;53144;51.524;5.080;2023-06-10T00:36:27;11.98;;;6.57;;
66342;SDS011;53144;51.524;5.080;2023-06-10T00:38:53;9.30;;;6.28;;
66342;SDS011;53144;51.524;5.080;2023-06-10T00:41:18;7.75;;;6.32;;
66342;SDS011;53144;51.524;5.080;2023-06-10T00:43:44;8.10;;;6.43;;
66342;SDS011;53144;51.524;5.080;2023-06-10T00:46:10;8.15;;;6.15;;
66342;SDS011;53144;51.524;5.080;2023-06-10T00:48:37;8.45;;;5.93;;
66342;SDS011;53144;51.524;5.080;2023-06-10T00:51:03;8.27;;;6.70;;
66342;SDS011;53144;51.524;5.080;2023-06-10T00:53:30;8.80;;;6.30;;
66342;SDS011;53144;51.524;5.080;2023-06-10T00:55:57;7.55;;;6.03;;
66342;SDS011;53144;51.524;5.080;2023-06-10T00:58:23;7.95;;;6.32;;
66342;SDS011;53144;51.524;5.080;2023-06-10T01:00:49;7.22;;;6.50;;
66342;SDS011;53144;51.524;5.080;2023-06-10T01:03:14;7.93;;;6.50;;
66342;SDS011;53144;51.524;5.080;2023-06-10T01:05:42;7.35;;;6.13;;
66342;SDS011;53144;51.524;5.080;2023-06-10T01:08:17;8.45;;;6.80;;
66342;SDS011;53144;51.524;5.080;2023-06-10T01:10:51;10.43;;;6.43;;
66342;SDS011;53144;51.524;5.080;2023-06-10T01:13:20;9.27;;;5.75;;
66342;SDS011;53144;51.524;5.080;2023-06-10T01:15:48;9.85;;;6.57;;
66342;SDS011;53144;51.524;5.080;2023-06-10T01:18:15;9.82;;;6.43;;
66342;SDS011;53144;51.524;5.080;2023-06-10T01:20:42;9.15;;;6.38;;
66342;SDS011;53144;51.524;5.080;2023-06-10T01:23:08;8.23;;;6.18;;
66342;SDS011;53144;51.524;5.080;2023-06-10T01:25:38;9.00;;;6.25;;
66342;SDS011;53144;51.524;5.080;2023-06-10T01:28:19;11.00;;;6.15;;
66342;SDS011;53144;51.524;5.080;2023-06-10T01:31:21;10.32;;;6.65;;
66342;SDS011;53144;51.524;5.080;2023-06-10T01:33:59;11.93;;;6.47;;
66342;SDS011;53144;51.524;5.080;2023-06-10T01:36:25;8.20;;;6.32;;
66342;SDS011;53144;51.524;5.080;2023-06-10T01:38:52;8.35;;;6.63;;
66342;SDS011;53144;51.524;5.080;2023-06-10T01:41:18;8.30;;;6.70;;
66342;SDS011;53144;51.524;5.080;2023-06-10T01:43:46;8.88;;;6.25;;
66342;SDS011;53144;51.524;5.080;2023-06-10T01:46:12;14.35;;;6.35;;
66342;SDS011;53144;51.524;5.080;2023-06-10T01:48:38;9.13;;;6.47;;
66342;SDS011;53144;51.524;5.080;2023-06-10T01:51:04;8.45;;;6.38;;
66342;SDS011;53144;51.524;5.080;2023-06-10T01:53:30;8.43;;;5.88;;
66342;SDS011;53144;51.524;5.080;2023-06-10T01:55:55;8.43;;;6.30;;
66342;SDS011;53144;51.524;5.080;2023-06-10T01:58:21;10.65;;;6.43;;
66342;SDS011;53144;51.524;5.080;2023-06-10T02:00:46;9.32;;;6.00;;
66342;SDS011;53144;51.524;5.080;2023-06-10T02:03:12;7.53;;;6.40;;
66342;SDS011;53144;51.524;5.080;2023-06-10T02:05:37;9.85;;;6.75;;
66342;SDS011;53144;51.524;5.080;2023-06-10T02:08:03;7.50;;;6.63;;
66342;SDS011;53144;51.524;5.080;2023-06-10T02:10:29;10.90;;;7.13;;
66342;SDS011;53144;51.524;5.080;2023-06-10T02:12:54;6.78;;;5.82;;
66342;SDS011;53144;51.524;5.080;2023-06-10T02:15:20;10.57;;;6.80;;
66342;SDS011;53144;51.524;5.080;2023-06-10T02:17:45;7.20;;;6.50;;
66342;SDS011;53144;51.524;5.080;2023-06-10T02:20:10;8.70;;;6.28;;
66342;SDS011;53144;51.524;5.080;2023-06-10T02:22:36;11.57;;;6.55;;
66342;SDS011;53144;51.524;5.080;2023-06-10T02:25:02;9.02;;;6.88;;
66342;SDS011;53144;51.524;5.080;2023-06-10T02:27:28;8.10;;;6.55;;
66342;SDS011;53144;51.524;5.080;2023-06-10T02:29:55;10.77;;;7.43;;
66342;SDS011;53144;51.524;5.080;2023-06-10T02:32:21;9.80;;;6.55;;
66342;SDS011;53144;51.524;5.080;2023-06-10T02:34:47;10.57;;;6.45;;
66342;SDS011;53144;51.524;5.080;2023-06-10T02:37:14;9.02;;;6.93;;
66342;SDS011;53144;51.524;5.080;2023-06-10T02:39:40;15.05;;;7.10;;
66342;SDS011;53144;51.524;5.080;2023-06-10T02:42:05;7.45;;;6.65;;
66342;SDS011;53144;51.524;5.080;2023-06-10T02:44:31;10.73;;;6.90;;
66342;SDS011;53144;51.524;5.080;2023-06-10T02:46:57;10.15;;;6.90;;
66342;SDS011;53144;51.524;5.080;2023-06-10T02:49:22;8.15;;;6.75;;
66342;SDS011;53144;51.524;5.080;2023-06-10T02:51:47;9.60;;;6.57;;
66342;SDS011;53144;51.524;5.080;2023-06-10T02:54:18;9.82;;;6.95;;
66342;SDS011;53144;51.524;5.080;2023-06-10T02:56:44;11.35;;;7.22;;
66342;SDS011;53144;51.524;5.080;2023-06-10T02:59:10;7.78;;;6.30;;
66342;SDS011;53144;51.524;5.080;2023-06-10T03:01:36;8.70;;;7.18;;
66342;SDS011;53144;51.524;5.080;2023-06-10T03:04:03;7.88;;;7.00;;
66342;SDS011;53144;51.524;5.080;2023-06-10T03:06:30;10.13;;;7.00;;
66342;SDS011;53144;51.524;5.080;2023-06-10T03:08:55;11.20;;;7.50;;
66342;SDS011;53144;51.524;5.080;2023-06-10T03:11:20;11.23;;;7.43;;
66342;SDS011;53144;51.524;5.080;2023-06-10T03:13:46;9.48;;;6.72;;
66342;SDS011;53144;51.524;5.080;2023-06-10T03:16:11;9.68;;;7.32;;
66342;SDS011;53144;51.524;5.080;2023-06-10T03:18:37;9.80;;;6.90;;
66342;SDS011;53144;51.524;5.080;2023-06-10T03:21:02;10.07;;;7.22;;
66342;SDS011;53144;51.524;5.080;2023-06-10T03:23:28;10.38;;;7.40;;
66342;SDS011;53144;51.524;5.080;2023-06-10T03:25:54;9.77;;;7.43;;
66342;SDS011;53144;51.524;5.080;2023-06-10T03:28:20;11.77;;;7.32;;
66342;SDS011;53144;51.524;5.080;2023-06-10T03:30:46;10.05;;;7.68;;
66342;SDS011;53144;51.524;5.080;2023-06-10T03:33:12;9.85;;;7.50;;
66342;SDS011;53144;51.524;5.080;2023-06-10T03:35:38;10.93;;;7.53;;
66342;SDS011;53144;51.524;5.080;2023-06-10T03:38:04;10.00;;;7.95;;
66342;SDS011;53144;51.524;5.080;2023-06-10T03:40:30;12.57;;;8.65;;
66342;SDS011;53144;51.524;5.080;2023-06-10T03:42:56;8.88;;;7.32;;
66342;SDS011;53144;51.524;5.080;2023-06-10T03:45:22;10.50;;;8.60;;
66342;SDS011;53144;51.524;5.080;2023-06-10T03:47:48;12.48;;;8.15;;
66342;SDS011;53144;51.524;5.080;2023-06-10T03:50:13;12.52;;;8.57;;
66342;SDS011;53144;51.524;5.080;2023-06-10T03:52:39;9.60;;;7.80;;
66342;SDS011;53144;51.524;5.080;2023-06-10T03:55:06;9.90;;;8.15;;
66342;SDS011;53144;51.524;5.080;2023-06-10T03:57:31;9.80;;;7.80;;
66342;SDS011;53144;51.524;5.080;2023-06-10T03:59:57;10.48;;;8.20;;
66342;SDS011;53144;51.524;5.080;2023-06-10T04:02:23;11.27;;;8.23;;
66342;SDS011;53144;51.524;5.080;2023-06-10T04:04:48;11.48;;;8.85;;
66342;SDS011;53144;51.524;5.080;2023-06-10T04:07:14;10.27;;;8.30;;
66342;SDS011;53144;51.524;5.080;2023-06-10T04:09:39;9.32;;;8.02;;
66342;SDS011;53144;51.524;5.080;2023-06-10T04:12:05;9.48;;;8.50;;
66342;SDS011;53144;51.524;5.080;2023-06-10T04:14:35;13.23;;;8.57;;
66342;SDS011;53144;51.524;5.080;2023-06-10T04:17:04;10.57;;;8.38;;
66342;SDS011;53144;51.524;5.080;2023-06-10T04:19:33;11.18;;;8.77;;
66342;SDS011;53144;51.524;5.080;2023-06-10T04:22:00;12.35;;;9.10;;
66342;SDS011;53144;51.524;5.080;2023-06-10T04:24:26;9.63;;;8.52;;
66342;SDS011;53144;51.524;5.080;2023-06-10T04:26:51;12.02;;;8.70;;
66342;SDS011;53144;51.524;5.080;2023-06-10T04:29:16;11.85;;;8.68;;
66342;SDS011;53144;51.524;5.080;2023-06-10T04:31:42;10.75;;;9.18;;
66342;SDS011;53144;51.524;5.080;2023-06-10T04:34:07;11.57;;;9.15;;
66342;SDS011;53144;51.524;5.080;2023-06-10T04:36:32;12.38;;;9.32;;
66342;SDS011;53144;51.524;5.080;2023-06-10T04:38:58;11.57;;;9.60;;
66342;SDS011;53144;51.524;5.080;2023-06-10T04:41:23;11.88;;;8.88;;
66342;SDS011;53144;51.524;5.080;2023-06-10T04:43:50;10.20;;;8.75;;
66342;SDS011;53144;51.524;5.080;2023-06-10T04:46:16;10.55;;;9.00;;
66342;SDS011;53144;51.524;5.080;2023-06-10T04:48:41;9.60;;;8.63;;
66342;SDS011;53144;51.524;5.080;2023-06-10T04:51:07;12.57;;;8.85;;
66342;SDS011;53144;51.524;5.080;2023-06-10T04:53:32;11.10;;;9.18;;
66342;SDS011;53144;51.524;5.080;2023-06-10T04:55:58;10.45;;;8.93;;
66342;SDS011;53144;51.524;5.080;2023-06-10T04:58:23;12.30;;;9.23;;
66342;SDS011;53144;51.524;5.080;2023-06-10T05:00:49;9.77;;;8.68;;
66342;SDS011;53144;51.524;5.080;2023-06-10T05:03:14;9.73;;;8.70;;
66342;SDS011;53144;51.524;5.080;2023-06-10T05:05:40;10.82;;;8.80;;
66342;SDS011;53144;51.524;5.080;2023-06-10T05:08:05;10.57;;;9.10;;
66342;SDS011;53144;51.524;5.080;2023-06-10T05:10:30;10.98;;;9.38;;
66342;SDS011;53144;51.524;5.080;2023-06-10T05:12:57;11.52;;;9.88;;
66342;SDS011;53144;51.524;5.080;2023-06-10T05:15:23;11.60;;;9.07;;
66342;SDS011;53144;51.524;5.080;2023-06-10T05:17:49;10.82;;;8.68;;
66342;SDS011;53144;51.524;5.080;2023-06-10T05:20:15;10.60;;;9.23;;
66342;SDS011;53144;51.524;5.080;2023-06-10T05:22:40;9.90;;;8.68;;
66342;SDS011;53144;51.524;5.080;2023-06-10T05:25:06;12.40;;;9.27;;
66342;SDS011;53144;51.524;5.080;2023-06-10T05:27:32;10.98;;;9.40;;
66342;SDS011;53144;51.524;5.080;2023-06-10T05:29:57;11.68;;;9.38;;
66342;SDS011;53144;51.524;5.080;2023-06-10T05:32:23;11.02;;;9.70;;
66342;SDS011;53144;51.524;5.080;2023-06-10T05:34:48;11.43;;;9.07;;
66342;SDS011;53144;51.524;5.080;2023-06-10T05:37:14;11.10;;;9.93;;
66342;SDS011;53144;51.524;5.080;2023-06-10T05:39:39;12.80;;;9.82;;
66342;SDS011;53144;51.524;5.080;2023-06-10T05:42:06;15.75;;;10.40;;
66342;SDS011;53144;51.524;5.080;2023-06-10T05:44:32;10.32;;;9.07;;
66342;SDS011;53144;51.524;5.080;2023-06-10T05:46:57;13.00;;;8.63;;
66342;SDS011;53144;51.524;5.080;2023-06-10T05:49:23;10.15;;;9.10;;
66342;SDS011;53144;51.524;5.080;2023-06-10T05:51:48;10.95;;;8.68;;
66342;SDS011;53144;51.524;5.080;2023-06-10T05:54:13;11.75;;;9.55;;
66342;SDS011;53144;51.524;5.080;2023-06-10T05:56:39;12.57;;;10.27;;
66342;SDS011;53144;51.524;5.080;2023-06-10T05:59:04;15.25;;;9.90;;
66342;SDS011;53144;51.524;5.080;2023-06-10T06:01:30;13.55;;;10.10;;
66342;SDS011;53144;51.524;5.080;2023-06-10T06:03:55;11.80;;;9.27;;
66342;SDS011;53144;51.524;5.080;2023-06-10T06:06:20;12.35;;;9.35;;
66342;SDS011;53144;51.524;5.080;2023-06-10T06:08:46;12.43;;;9.85;;
66342;SDS011;53144;51.524;5.080;2023-06-10T06:11:11;11.68;;;8.98;;
66342;SDS011;53144;51.524;5.080;2023-06-10T06:13:37;11.90;;;8.88;;
66342;SDS011;53144;51.524;5.080;2023-06-10T06:16:02;15.70;;;9.63;;
66342;SDS011;53144;51.524;5.080;2023-06-10T06:18:28;15.07;;;8.82;;
66342;SDS011;53144;51.524;5.080;2023-06-10T06:20:53;17.15;;;9.40;;
66342;SDS011;53144;51.524;5.080;2023-06-10T06:23:19;10.20;;;9.07;;
66342;SDS011;53144;51.524;5.080;2023-06-10T06:25:44;14.70;;;8.73;;
66342;SDS011;53144;51.524;5.080;2023-06-10T06:28:10;14.90;;;9.20;;
66342;SDS011;53144;51.524;5.080;2023-06-10T06:30:35;16.00;;;8.90;;
66342;SDS011;53144;51.524;5.080;2023-06-10T06:33:01;13.15;;;8.32;;
66342;SDS011;53144;51.524;5.080;2023-06-10T06:35:27;12.20;;;8.73;;
66342;SDS011;53144;51.524;5.080;2023-06-10T06:37:52;12.38;;;8.60;;
66342;SDS011;53144;51.524;5.080;2023-06-10T06:40:17;13.05;;;9.25;;
66342;SDS011;53144;51.524;5.080;2023-06-10T06:42:43;16.25;;;8.55;;
66342;SDS011;53144;51.524;5.080;2023-06-10T06:45:09;13.60;;;8.65;;
66342;SDS011;53144;51.524;5.080;2023-06-10T06:47:35;14.63;;;8.88;;
66342;SDS011;53144;51.524;5.080;2023-06-10T06:50:00;10.70;;;8.40;;
66342;SDS011;53144;51.524;5.080;2023-06-10T06:52:26;10.95;;;8.85;;
66342;SDS011;53144;51.524;5.080;2023-06-10T06:54:52;12.43;;;8.68;;
66342;SDS011;53144;51.524;5.080;2023-06-10T06:57:17;10.55;;;8.70;;
66342;SDS011;53144;51.524;5.080;2023-06-10T06:59:43;12.70;;;9.20;;
66342;SDS011;53144;51.524;5.080;2023-06-10T07:02:08;11.18;;;8.60;;
66342;SDS011;53144;51.524;5.080;2023-06-10T07:04:33;28.33;;;8.52;;
66342;SDS011;53144;51.524;5.080;2023-06-10T07:06:59;13.05;;;8.00;;
66342;SDS011;53144;51.524;5.080;2023-06-10T07:09:24;18.63;;;9.15;;
66342;SDS011;53144;51.524;5.080;2023-06-10T07:11:49;9.60;;;7.93;;
66342;SDS011;53144;51.524;5.080;2023-06-10T07:14:15;10.77;;;8.70;;
66342;SDS011;53144;51.524;5.080;2023-06-10T07:16:40;15.15;;;8.10;;
66342;SDS011;53144;51.524;5.080;2023-06-10T07:19:05;12.00;;;8.32;;
66342;SDS011;53144;51.524;5.080;2023-06-10T07:21:31;12.55;;;8.50;;
66342;SDS011;53144;51.524;5.080;2023-06-10T07:23:57;12.15;;;7.88;;
66342;SDS011;53144;51.524;5.080;2023-06-10T07:26:23;15.00;;;8.43;;
66342;SDS011;53144;51.524;5.080;2023-06-10T07:28:48;12.68;;;7.88;;
66342;SDS011;53144;51.524;5.080;2023-06-10T07:31:14;13.90;;;8.07;;
66342;SDS011;53144;51.524;5.080;2023-06-10T07:33:39;12.13;;;8.05;;
66342;SDS011;53144;51.524;5.080;2023-06-10T07:36:05;17.88;;;7.95;;
66342;SDS011;53144;51.524;5.080;2023-06-10T07:38:31;12.70;;;8.50;;
66342;SDS011;53144;51.524;5.080;2023-06-10T07:40:57;12.73;;;8.38;;
66342;SDS011;53144;51.524;5.080;2023-06-10T07:43:22;10.57;;;7.65;;
66342;SDS011;53144;51.524;5.080;2023-06-10T07:45:48;10.85;;;7.85;;
66342;SDS011;53144;51.524;5.080;2023-06-10T07:48:14;15.68;;;8.07;;
66342;SDS011;53144;51.524;5.080;2023-06-10T07:50:42;10.55;;;8.30;;
66342;SDS011;53144;51.524;5.080;2023-06-10T07:53:07;9.95;;;8.10;;
66342;SDS011;53144;51.524;5.080;2023-06-10T07:55:32;12.70;;;7.80;;
66342;SDS011;53144;51.524;5.080;2023-06-10T07:57:58;11.93;;;8.18;;
66342;SDS011;53144;51.524;5.080;2023-06-10T08:00:23;11.77;;;7.20;;
66342;SDS011;53144;51.524;5.080;2023-06-10T08:02:49;11.02;;;7.53;;
66342;SDS011;53144;51.524;5.080;2023-06-10T08:05:15;14.75;;;7.68;;
66342;SDS011;53144;51.524;5.080;2023-06-10T08:07:41;9.05;;;6.85;;
66342;SDS011;53144;51.524;5.080;2023-06-10T08:10:07;10.52;;;7.22;;
66342;SDS011;53144;51.524;5.080;2023-06-10T08:12:33;10.00;;;7.50;;
66342;SDS011;53144;51.524;5.080;2023-06-10T08:14:59;8.98;;;7.10;;
66342;SDS011;53144;51.524;5.080;2023-06-10T08:17:25;13.02;;;7.68;;
66342;SDS011;53144;51.524;5.080;2023-06-10T08:19:50;15.60;;;7.50;;
66342;SDS011;53144;51.524;5.080;2023-06-10T08:22:15;13.23;;;7.18;;
66342;SDS011;53144;51.524;5.080;2023-06-10T08:24:41;14.90;;;7.40;;
66342;SDS011;53144;51.524;5.080;2023-06-10T08:27:06;12.32;;;7.15;;
66342;SDS011;53144;51.524;5.080;2023-06-10T08:29:32;11.88;;;7.43;;
66342;SDS011;53144;51.524;5.080;2023-06-10T08:31:57;12.05;;;7.15;;
66342;SDS011;53144;51.524;5.080;2023-06-10T08:34:23;40.53;;;9.05;;
66342;SDS011;53144;51.524;5.080;2023-06-10T08:36:49;11.10;;;6.65;;
66342;SDS011;53144;51.524;5.080;2023-06-10T08:39:18;9.27;;;6.80;;
66342;SDS011;53144;51.524;5.080;2023-06-10T08:41:45;10.25;;;6.32;;
66342;SDS011;53144;51.524;5.080;2023-06-10T08:44:44;12.45;;;6.57;;
66342;SDS011;53144;51.524;5.080;2023-06-10T08:47:14;15.23;;;6.40;;
66342;SDS011;53144;51.524;5.080;2023-06-10T08:49:44;7.32;;;6.63;;
66342;SDS011;53144;51.524;5.080;2023-06-10T08:52:15;11.82;;;7.13;;
66342;SDS011;53144;51.524;5.080;2023-06-10T08:57:23;16.58;;;6.60;;
66342;SDS011;53144;51.524;5.080;2023-06-10T08:59:49;10.93;;;6.18;;
66342;SDS011;53144;51.524;5.080;2023-06-10T09:02:17;10.63;;;5.95;;
66342;SDS011;53144;51.524;5.080;2023-06-10T09:04:45;10.90;;;6.05;;
66342;SDS011;53144;51.524;5.080;2023-06-10T09:07:13;9.18;;;6.57;;
66342;SDS011;53144;51.524;5.080;2023-06-10T09:09:40;9.07;;;6.07;;
66342;SDS011;53144;51.524;5.080;2023-06-10T09:12:07;8.32;;;5.97;;
66342;SDS011;53144;51.524;5.080;2023-06-10T09:14:33;9.25;;;5.97;;
66342;SDS011;53144;51.524;5.080;2023-06-10T09:16:59;12.75;;;5.93;;
66342;SDS011;53144;51.524;5.080;2023-06-10T09:19:27;10.82;;;5.72;;
66342;SDS011;53144;51.524;5.080;2023-06-10T09:21:53;8.80;;;5.88;;
66342;SDS011;53144;51.524;5.080;2023-06-10T09:24:20;14.63;;;6.03;;
66342;SDS011;53144;51.524;5.080;2023-06-10T09:26:49;12.27;;;6.10;;
66342;SDS011;53144;51.524;5.080;2023-06-10T09:29:16;8.20;;;5.72;;
66342;SDS011;53144;51.524;5.080;2023-06-10T09:31:42;9.32;;;5.82;;
66342;SDS011;53144;51.524;5.080;2023-06-10T09:34:11;10.23;;;5.55;;
66342;SDS011;53144;51.524;5.080;2023-06-10T09:36:38;11.95;;;5.88;;
66342;SDS011;53144;51.524;5.080;2023-06-10T09:39:05;11.05;;;5.80;;
66342;SDS011;53144;51.524;5.080;2023-06-10T09:41:41;7.70;;;5.30;;
66342;SDS011;53144;51.524;5.080;2023-06-10T09:46:44;7.95;;;5.57;;
66342;SDS011;53144;51.524;5.080;2023-06-10T09:49:11;13.88;;;5.90;;
66342;SDS011;53144;51.524;5.080;2023-06-10T09:51:36;13.95;;;5.85;;
66342;SDS011;53144;51.524;5.080;2023-06-10T09:54:02;9.88;;;5.05;;
66342;SDS011;53144;51.524;5.080;2023-06-10T09:56:34;8.95;;;4.90;;
66342;SDS011;53144;51.524;5.080;2023-06-10T09:59:00;10.43;;;5.63;;
66342;SDS011;53144;51.524;5.080;2023-06-10T10:01:26;10.77;;;5.90;;
66342;SDS011;53144;51.524;5.080;2023-06-10T10:03:52;8.52;;;5.60;;
66342;SDS011;53144;51.524;5.080;2023-06-10T10:06:18;10.00;;;5.20;;
66342;SDS011;53144;51.524;5.080;2023-06-10T10:08:46;10.98;;;5.30;;
66342;SDS011;53144;51.524;5.080;2023-06-10T10:11:12;11.02;;;5.75;;
66342;SDS011;53144;51.524;5.080;2023-06-10T10:13:43;7.97;;;5.30;;
66342;SDS011;53144;51.524;5.080;2023-06-10T10:16:16;8.60;;;5.25;;
66342;SDS011;53144;51.524;5.080;2023-06-10T10:18:53;15.32;;;5.60;;
66342;SDS011;53144;51.524;5.080;2023-06-10T10:21:24;7.07;;;5.35;;
66342;SDS011;53144;51.524;5.080;2023-06-10T10:26:30;7.22;;;4.95;;
66342;SDS011;53144;51.524;5.080;2023-06-10T10:29:20;7.65;;;4.70;;
66342;SDS011;53144;51.524;5.080;2023-06-10T10:31:50;10.48;;;4.97;;
66342;SDS011;53144;51.524;5.080;2023-06-10T10:34:29;6.15;;;5.07;;
66342;SDS011;53144;51.524;5.080;2023-06-10T10:36:57;10.85;;;5.10;;
66342;SDS011;53144;51.524;5.080;2023-06-10T10:39:23;12.52;;;5.60;;
66342;SDS011;53144;51.524;5.080;2023-06-10T10:41:49;8.20;;;5.00;;
66342;SDS011;53144;51.524;5.080;2023-06-10T10:44:15;7.85;;;5.15;;
66342;SDS011;53144;51.524;5.080;2023-06-10T10:46:45;8.70;;;5.10;;
66342;SDS011;53144;51.524;5.080;2023-06-10T10:49:14;7.03;;;5.32;;
66342;SDS011;53144;51.524;5.080;2023-06-10T10:52:14;7.07;;;5.05;;
66342;SDS011;53144;51.524;5.080;2023-06-10T10:54:36;6.27;;;4.83;;
66342;SDS011;53144;51.524;5.080;2023-06-10T10:59:45;8.52;;;4.95;;
66342;SDS011;53144;51.524;5.080;2023-06-10T11:05:04;6.72;;;4.28;;
66342;SDS011;53144;51.524;5.080;2023-06-10T11:07:31;9.88;;;5.30;;
66342;SDS011;53144;51.524;5.080;2023-06-10T11:09:58;6.93;;;5.13;;
66342;SDS011;53144;51.524;5.080;2023-06-10T11:15:10;5.53;;;4.55;;
66342;SDS011;53144;51.524;5.080;2023-06-10T11:17:36;6.32;;;5.00;;
66342;SDS011;53144;51.524;5.080;2023-06-10T11:20:02;9.65;;;4.90;;
66342;SDS011;53144;51.524;5.080;2023-06-10T11:22:27;8.07;;;5.32;;
66342;SDS011;53144;51.524;5.080;2023-06-10T11:24:53;7.47;;;4.93;;
66342;SDS011;53144;51.524;5.080;2023-06-10T11:27:19;6.28;;;4.70;;
66342;SDS011;53144;51.524;5.080;2023-06-10T11:29:58;5.75;;;5.18;;
66342;SDS011;53144;51.524;5.080;2023-06-10T11:32:28;7.18;;;5.28;;
66342;SDS011;53144;51.524;5.080;2023-06-10T11:34:58;8.65;;;5.38;;
66342;SDS011;53144;51.524;5.080;2023-06-10T11:37:24;5.50;;;4.90;;
66342;SDS011;53144;51.524;5.080;2023-06-10T11:39:53;7.28;;;5.00;;
66342;SDS011;53144;51.524;5.080;2023-06-10T11:42:19;9.85;;;4.93;;
66342;SDS011;53144;51.524;5.080;2023-06-10T11:44:52;9.18;;;5.15;;
66342;SDS011;53144;51.524;5.080;2023-06-10T11:47:19;6.63;;;5.10;;
66342;SDS011;53144;51.524;5.080;2023-06-10T11:49:45;5.75;;;4.90;;
66342;SDS011;53144;51.524;5.080;2023-06-10T11:52:25;8.48;;;5.00;;
66342;SDS011;53144;51.524;5.080;2023-06-10T11:54:53;9.57;;;5.05;;
66342;SDS011;53144;51.524;5.080;2023-06-10T11:57:20;6.60;;;5.20;;
66342;SDS011;53144;51.524;5.080;2023-06-10T11:59:45;7.50;;;4.88;;
66342;SDS011;53144;51.524;5.080;2023-06-10T12:02:17;7.97;;;4.88;;
66342;SDS011;53144;51.524;5.080;2023-06-10T12:04:44;5.40;;;4.90;;
66342;SDS011;53144;51.524;5.080;2023-06-10T12:07:14;5.88;;;5.05;;
66342;SDS011;53144;51.524;5.080;2023-06-10T12:09:42;8.10;;;5.15;;
66342;SDS011;53144;51.524;5.080;2023-06-10T12:12:09;11.02;;;5.00;;
66342;SDS011;53144;51.524;5.080;2023-06-10T12:17:22;6.57;;;5.18;;
66342;SDS011;53144;51.524;5.080;2023-06-10T12:20:03;8.55;;;5.25;;
66342;SDS011;53144;51.524;5.080;2023-06-10T12:22:42;7.22;;;4.70;;
66342;SDS011;53144;51.524;5.080;2023-06-10T12:25:09;8.55;;;5.10;;
66342;SDS011;53144;51.524;5.080;2023-06-10T12:27:36;8.85;;;4.90;;
66342;SDS011;53144;51.524;5.080;2023-06-10T12:30:03;6.93;;;5.10;;
66342;SDS011;53144;51.524;5.080;2023-06-10T12:32:38;8.25;;;5.22;;
66342;SDS011;53144;51.524;5.080;2023-06-10T12:35:11;7.10;;;5.05;;
66342;SDS011;53144;51.524;5.080;2023-06-10T12:37:38;9.70;;;5.30;;
66342;SDS011;53144;51.524;5.080;2023-06-10T12:40:05;6.53;;;5.03;;
66342;SDS011;53144;51.524;5.080;2023-06-10T12:42:31;9.98;;;5.25;;
66342;SDS011;53144;51.524;5.080;2023-06-10T12:44:59;10.27;;;5.30;;
66342;SDS011;53144;51.524;5.080;2023-06-10T12:47:34;8.40;;;5.70;;
66342;SDS011;53144;51.524;5.080;2023-06-10T12:50:01;7.72;;;5.00;;
66342;SDS011;53144;51.524;5.080;2023-06-10T12:52:28;7.95;;;5.43;;
66342;SDS011;53144;51.524;5.080;2023-06-10T12:54:54;6.55;;;4.90;;
66342;SDS011;53144;51.524;5.080;2023-06-10T12:57:20;7.82;;;5.10;;
66342;SDS011;53144;51.524;5.080;2023-06-10T12:59:46;8.88;;;5.28;;
66342;SDS011;53144;51.524;5.080;2023-06-10T13:02:17;5.88;;;4.50;;
66342;SDS011;53144;51.524;5.080;2023-06-10T13:04:43;6.40;;;4.78;;
66342;SDS011;53144;51.524;5.080;2023-06-10T13:07:09;9.98;;;4.93;;
66342;SDS011;53144;51.524;5.080;2023-06-10T13:09:35;9.20;;;5.38;;
66342;SDS011;53144;51.524;5.080;2023-06-10T13:12:01;9.80;;;5.03;;
66342;SDS011;53144;51.524;5.080;2023-06-10T13:14:27;8.45;;;5.03;;
66342;SDS011;53144;51.524;5.080;2023-06-10T13:16:52;8.35;;;5.30;;
66342;SDS011;53144;51.524;5.080;2023-06-10T13:19:19;6.38;;;5.05;;
66342;SDS011;53144;51.524;5.080;2023-06-10T13:21:46;10.00;;;4.90;;
66342;SDS011;53144;51.524;5.080;2023-06-10T13:24:12;6.30;;;5.10;;
66342;SDS011;53144;51.524;5.080;2023-06-10T13:26:37;5.20;;;4.70;;
66342;SDS011;53144;51.524;5.080;2023-06-10T13:29:03;7.70;;;5.43;;
66342;SDS011;53144;51.524;5.080;2023-06-10T13:31:29;5.60;;;4.82;;
66342;SDS011;53144;51.524;5.080;2023-06-10T13:33:54;8.63;;;4.82;;
66342;SDS011;53144;51.524;5.080;2023-06-10T13:36:20;8.68;;;4.85;;
66342;SDS011;53144;51.524;5.080;2023-06-10T13:38:45;7.72;;;4.75;;
66342;SDS011;53144;51.524;5.080;2023-06-10T13:41:12;8.15;;;5.00;;
66342;SDS011;53144;51.524;5.080;2023-06-10T13:43:38;8.27;;;5.00;;
66342;SDS011;53144;51.524;5.080;2023-06-10T13:46:03;11.77;;;5.50;;
66342;SDS011;53144;51.524;5.080;2023-06-10T13:48:29;9.05;;;5.18;;
66342;SDS011;53144;51.524;5.080;2023-06-10T13:50:54;6.78;;;5.00;;
66342;SDS011;53144;51.524;5.080;2023-06-10T13:53:19;5.35;;;4.55;;
66342;SDS011;53144;51.524;5.080;2023-06-10T13:55:45;6.68;;;5.00;;
66342;SDS011;53144;51.524;5.080;2023-06-10T13:58:10;8.63;;;5.22;;
66342;SDS011;53144;51.524;5.080;2023-06-10T14:00:36;9.95;;;5.40;;
66342;SDS011;53144;51.524;5.080;2023-06-10T14:03:01;9.85;;;5.25;;
66342;SDS011;53144;51.524;5.080;2023-06-10T14:05:28;7.55;;;5.10;;
66342;SDS011;53144;51.524;5.080;2023-06-10T14:07:53;6.10;;;5.15;;
66342;SDS011;53144;51.524;5.080;2023-06-10T14:10:18;6.78;;;4.70;;
66342;SDS011;53144;51.524;5.080;2023-06-10T14:12:44;6.18;;;4.95;;
66342;SDS011;53144;51.524;5.080;2023-06-10T14:15:09;6.20;;;4.80;;
66342;SDS011;53144;51.524;5.080;2023-06-10T14:17:35;6.43;;;5.50;;
66342;SDS011;53144;51.524;5.080;2023-06-10T14:20:00;6.80;;;4.80;;
66342;SDS011;53144;51.524;5.080;2023-06-10T14:22:26;7.10;;;4.60;;
66342;SDS011;53144;51.524;5.080;2023-06-10T14:24:51;7.00;;;4.88;;
66342;SDS011;53144;51.524;5.080;2023-06-10T14:27:16;8.07;;;4.82;;
66342;SDS011;53144;51.524;5.080;2023-06-10T14:29:42;5.50;;;4.63;;
66342;SDS011;53144;51.524;5.080;2023-06-10T14:32:07;7.80;;;4.70;;
66342;SDS011;53144;51.524;5.080;2023-06-10T14:34:33;7.60;;;4.70;;
66342;SDS011;53144;51.524;5.080;2023-06-10T14:37:01;9.95;;;5.00;;
66342;SDS011;53144;51.524;5.080;2023-06-10T14:39:29;7.80;;;5.40;;
66342;SDS011;53144;51.524;5.080;2023-06-10T14:41:54;6.32;;;4.93;;
66342;SDS011;53144;51.524;5.080;2023-06-10T14:44:19;7.18;;;5.32;;
66342;SDS011;53144;51.524;5.080;2023-06-10T14:46:45;6.63;;;5.03;;
66342;SDS011;53144;51.524;5.080;2023-06-10T14:49:10;6.03;;;4.50;;
66342;SDS011;53144;51.524;5.080;2023-06-10T14:51:36;5.63;;;4.93;;
66342;SDS011;53144;51.524;5.080;2023-06-10T14:54:01;8.20;;;5.00;;
66342;SDS011;53144;51.524;5.080;2023-06-10T14:56:27;10.38;;;4.88;;
66342;SDS011;53144;51.524;5.080;2023-06-10T14:58:52;5.97;;;5.03;;